Time;durP1;ratioP1;P1;durP2;ratioP2;P2;SDS_P1;SDS_P2;PMS_P1;PMS_P2;Temp;Humidity;BMP_temperature;BMP_pressure;BME280_temperature;BME280_humidity;BME280_pressure;Samples;Min_cycle;Max_cycle;Signal;HPM_P1;HPM_P2
2022/07/21 00:00:25;;;;;;;;;3.00;3.00;;;;;22.98;55.87;101721.66;5081014;27;62490;-70
2022/07/21 00:02:51;;;;;;;;;2.33;2.33;;;;;22.99;55.70;101714.41;5080243;28;47298;-70
2022/07/21 00:05:17;;;;;;;;;0.33;0.33;;;;;23.00;55.86;101716.09;5081514;28;45724;-70
2022/07/21 00:07:43;;;;;;;;;0.00;0.00;;;;;22.99;55.62;101703.56;5081677;27;45409;-70
2022/07/21 00:10:09;;;;;;;;;1.00;1.00;;;;;22.98;55.86;101707.25;5081986;27;45495;-71
2022/07/21 00:12:34;;;;;;;;;4.00;3.00;;;;;22.96;55.72;101700.09;5081315;28;45425;-70
2022/07/21 00:15:00;;;;;;;;;3.00;3.00;;;;;22.93;56.11;101700.38;5081384;27;45319;-71
2022/07/21 00:17:25;;;;;;;;;3.00;3.00;;;;;22.86;56.10;101703.78;5081303;27;45295;-70
2022/07/21 00:19:51;;;;;;;;;3.33;3.00;;;;;22.84;55.99;101705.75;5080881;27;59364;-70
2022/07/21 00:22:16;;;;;;;;;3.33;2.00;;;;;22.86;56.23;101706.50;5080018;27;71088;-70
2022/07/21 00:24:41;;;;;;;;;3.33;2.67;;;;;22.87;56.00;101714.50;5081255;27;47230;-70
2022/07/21 00:27:06;;;;;;;;;4.00;2.00;;;;;22.87;56.36;101705.50;5080887;27;51331;-70
2022/07/21 00:29:32;;;;;;;;;1.00;1.00;;;;;22.85;56.60;101707.47;5080293;27;66029;-70
2022/07/21 00:31:59;;;;;;;;;2.33;2.33;;;;;22.80;56.62;101699.75;5081116;27;47178;-70
2022/07/21 00:34:25;;;;;;;;;2.00;2.00;;;;;22.77;56.53;101698.16;5081179;27;45427;-70
2022/07/21 00:36:50;;;;;;;;;2.33;2.33;;;;;22.76;56.64;101706.44;5079735;28;45725;-70
2022/07/21 00:39:16;;;;;;;;;2.33;2.33;;;;;22.70;57.25;101702.41;5080723;27;51724;-69
2022/07/21 00:41:41;;;;;;;;;4.00;3.00;;;;;22.67;57.24;101707.25;5080205;27;68123;-70
2022/07/21 00:44:18;;;;;;;;;0.67;0.67;;;;;22.59;57.61;101710.63;5079135;27;68598;-69
2022/07/21 00:46:44;;;;;;;;;2.00;2.00;;;;;22.50;57.28;101704.13;5081061;27;45437;-70
2022/07/21 00:49:09;;;;;;;;;3.00;2.00;;;;;22.44;57.32;101704.69;5080893;27;45519;-71
2022/07/21 00:51:35;;;;;;;;;3.00;3.00;;;;;22.37;57.52;101712.50;5079596;27;71447;-70
2022/07/21 00:54:00;;;;;;;;;3.33;2.00;;;;;22.31;58.11;101702.16;5080112;27;64227;-70
2022/07/21 00:56:26;;;;;;;;;3.00;3.00;;;;;22.27;57.67;101695.28;5079704;28;45434;-69
2022/07/21 00:58:51;;;;;;;;;3.67;3.67;;;;;22.24;57.80;101696.41;5081153;27;45690;-70
2022/07/21 01:01:16;;;;;;;;;3.00;3.00;;;;;22.21;58.10;101699.34;5079971;27;68674;-70
2022/07/21 01:03:42;;;;;;;;;4.00;3.00;;;;;22.18;57.76;101706.91;5079791;27;70586;-70
2022/07/21 01:06:07;;;;;;;;;1.00;1.00;;;;;22.13;58.65;101701.88;5080201;27;50530;-69
2022/07/21 01:08:32;;;;;;;;;3.67;3.67;;;;;22.07;59.07;101703.25;5080654;27;45419;-70
2022/07/21 01:10:58;;;;;;;;;2.00;2.00;;;;;22.02;58.37;101702.78;5080345;27;46049;-69
2022/07/21 01:13:23;;;;;;;;;3.00;3.00;;;;;21.99;58.89;101708.44;5079919;27;62494;-69
2022/07/21 01:15:49;;;;;;;;;5.00;3.00;;;;;21.97;58.22;101714.00;5080519;27;45161;-69
2022/07/21 01:18:14;;;;;;;;;2.00;2.00;;;;;21.95;59.22;101702.44;5079367;27;66127;-69
2022/07/21 01:20:41;;;;;;;;;3.33;2.33;;;;;21.93;59.13;101709.84;5079375;27;69454;-71
2022/07/21 01:23:06;;;;;;;;;3.00;1.33;;;;;21.91;59.28;101708.25;5079061;28;45386;-69
2022/07/21 01:25:32;;;;;;;;;2.00;2.00;;;;;21.90;59.20;101709.22;5079551;27;60578;-70
2022/07/21 01:27:57;;;;;;;;;4.00;2.67;;;;;21.92;59.15;101704.56;5080298;27;45631;-69
2022/07/21 01:30:22;;;;;;;;;5.00;3.00;;;;;21.93;59.11;101706.28;5079806;28;45389;-68
2022/07/21 01:32:48;;;;;;;;;3.33;3.33;;;;;21.93;59.17;101693.59;5079397;28;64806;-70
2022/07/21 01:35:15;;;;;;;;;3.00;3.00;;;;;21.94;59.43;101698.03;5079337;27;65251;-69
2022/07/21 01:37:43;;;;;;;;;3.00;3.00;;;;;21.95;59.15;101688.03;5080241;27;45373;-70
2022/07/21 01:42:54;;;;;;;;;5.00;5.00;;;;;21.94;59.10;101683.59;5079792;28;46255;-69
2022/07/21 01:45:20;;;;;;;;;4.00;4.00;;;;;21.94;58.81;101679.06;5079666;27;52119;-70
2022/07/21 01:47:46;;;;;;;;;3.33;3.33;;;;;21.96;59.68;101681.63;5080247;27;45276;-70
2022/07/21 01:50:12;;;;;;;;;4.33;3.00;;;;;21.94;59.32;101686.31;5078917;27;69804;-69
2022/07/21 01:52:38;;;;;;;;;4.00;4.00;;;;;21.92;59.45;101688.31;5079124;28;66749;-69
2022/07/21 01:55:03;;;;;;;;;3.00;2.00;;;;;21.88;59.44;101690.41;5080073;27;45535;-69
2022/07/21 01:57:29;;;;;;;;;3.00;3.00;;;;;21.86;59.80;101700.50;5083528;27;45337;-69
2022/07/21 01:59:54;;;;;;;;;2.67;2.67;;;;;21.82;59.83;101699.03;5083467;27;46189;-69
2022/07/21 02:02:21;;;;;;;;;3.33;3.33;;;;;21.79;59.78;101702.00;5082731;27;67526;-69
2022/07/21 02:04:47;;;;;;;;;3.67;3.00;;;;;21.79;60.43;101715.53;5082684;28;45306;-69
2022/07/21 02:07:13;;;;;;;;;3.00;3.00;;;;;21.76;60.52;101708.53;5083175;27;45434;-69
2022/07/21 02:09:38;;;;;;;;;6.67;5.67;;;;;21.74;60.08;101710.50;5082662;27;64569;-69
2022/07/21 02:12:04;;;;;;;;;4.67;4.67;;;;;21.74;59.82;101718.63;5082490;27;69167;-70
2022/07/21 02:14:29;;;;;;;;;3.00;3.00;;;;;21.74;60.20;101705.09;5083495;27;45456;-69
2022/07/21 02:16:54;;;;;;;;;6.00;5.33;;;;;21.75;60.02;101708.69;5083266;27;45539;-69
2022/07/21 02:19:20;;;;;;;;;5.00;5.00;;;;;21.73;59.67;101703.41;5082523;27;67154;-69
2022/07/21 02:21:45;;;;;;;;;4.00;4.00;;;;;21.71;60.23;101708.06;5082775;27;45402;-69
2022/07/21 02:24:10;;;;;;;;;5.33;5.33;;;;;21.70;59.65;101710.91;5082506;27;64514;-69
2022/07/21 02:26:36;;;;;;;;;5.00;5.00;;;;;21.70;59.90;101706.34;5082384;27;61519;-70
2022/07/21 02:29:01;;;;;;;;;5.67;5.67;;;;;21.70;60.16;101708.19;5082121;27;68941;-69
2022/07/21 02:31:26;;;;;;;;;4.67;4.33;;;;;21.70;60.23;101708.19;5082710;28;45349;-69
2022/07/21 02:33:52;;;;;;;;;4.00;4.00;;;;;21.70;60.27;101713.63;5082343;27;64672;-70
2022/07/21 02:36:17;;;;;;;;;6.00;4.67;;;;;21.71;59.90;101718.91;5082478;27;57322;-70
2022/07/21 02:38:42;;;;;;;;;5.00;5.00;;;;;21.69;59.94;101720.84;5082069;27;71126;-70
2022/07/21 02:41:08;;;;;;;;;6.67;6.00;;;;;;;;5082877;27;45425;-70
2022/07/21 02:43:33;;;;;;;;;7.00;5.00;;;;;21.68;59.96;101723.69;5083129;27;45401;-70
2022/07/21 02:45:58;;;;;;;;;4.00;4.00;;;;;21.64;60.03;101720.38;5082100;27;67535;-70
2022/07/21 02:48:24;;;;;;;;;7.00;7.00;;;;;21.64;60.07;101726.66;5081715;27;71248;-70
2022/07/21 02:50:49;;;;;;;;;3.67;3.00;;;;;21.63;60.20;101727.66;5081833;27;66978;-68
2022/07/21 02:53:19;;;;;;;;;6.00;5.00;;;;;21.65;60.28;101727.50;5082592;27;45388;-71
2022/07/21 02:55:48;;;;;;;;;7.00;6.00;;;;;21.68;59.96;101723.69;5082836;27;45405;-70
2022/07/21 02:58:20;;;;;;;;;5.33;5.33;;;;;21.71;60.20;101734.28;5082400;27;45410;-70
2022/07/21 03:00:59;;;;;;;;;5.00;5.00;;;;;21.71;59.96;101729.72;5082458;27;45512;-71
2022/07/21 03:03:30;;;;;;;;;7.00;7.00;;;;;21.72;59.69;101733.28;5082767;28;45329;-70
2022/07/21 03:05:56;;;;;;;;;6.33;6.33;;;;;21.67;60.07;101732.78;5082396;27;45547;-71
2022/07/21 03:08:23;;;;;;;;;7.33;7.33;;;;;21.65;59.84;101730.22;5081358;27;46386;-70
2022/07/21 03:10:49;;;;;;;;;5.00;5.00;;;;;21.63;59.69;101733.06;5082468;27;45369;-70
2022/07/21 03:13:15;;;;;;;;;7.67;7.67;;;;;21.61;59.92;101737.72;5082582;27;45397;-70
2022/07/21 03:15:40;;;;;;;;;10.00;9.00;;;;;21.61;60.11;101735.03;5082523;27;45567;-69
2022/07/21 03:18:06;;;;;;;;;9.00;6.67;;;;;21.60;59.58;101735.16;5082133;27;45485;-69
2022/07/21 03:20:34;;;;;;;;;9.00;9.00;;;;;21.58;59.93;101740.69;5082097;27;45361;-70
2022/07/21 03:22:59;;;;;;;;;9.67;8.33;;;;;21.60;59.29;101743.28;5082112;27;45369;-70
2022/07/21 03:25:25;;;;;;;;;7.33;7.00;;;;;21.58;59.58;101748.81;5081148;27;62227;-71
2022/07/21 03:27:51;;;;;;;;;5.67;5.67;;;;;21.56;59.68;101747.22;5080100;28;68285;-70
2022/07/21 03:30:17;;;;;;;;;9.33;7.67;;;;;21.51;60.08;101754.81;5080407;28;45379;-70
2022/07/21 03:32:43;;;;;;;;;11.33;11.00;;;;;21.50;59.59;101748.56;5082347;27;45405;-70
2022/07/21 03:35:12;;;;;;;;;10.67;9.67;;;;;21.48;59.95;101759.53;5081831;27;45345;-70
2022/07/21 03:37:47;;;;;;;;;13.33;10.00;;;;;21.47;59.99;101755.09;5081792;27;46124;-70
2022/07/21 03:40:15;;;;;;;;;7.33;7.33;;;;;21.44;60.10;101759.88;5081887;27;45300;-69
2022/07/21 03:42:40;;;;;;;;;10.00;9.00;;;;;21.41;59.80;101755.56;5082033;28;45274;-69
2022/07/21 03:45:06;;;;;;;;;9.33;9.33;;;;;21.37;59.88;101753.22;5081544;27;52666;-69
2022/07/21 03:47:32;;;;;;;;;11.33;10.00;;;;;21.32;59.72;101754.47;5081739;27;45493;-69
2022/07/21 03:49:57;;;;;;;;;9.00;7.67;;;;;21.32;59.87;101754.47;5081475;27;45389;-69
2022/07/21 03:52:22;;;;;;;;;10.00;10.00;;;;;21.34;60.31;101758.91;5081073;27;63946;-68
2022/07/21 03:54:48;;;;;;;;;11.33;11.33;;;;;21.35;60.24;101756.06;5081032;27;63689;-69
2022/07/21 03:57:13;;;;;;;;;10.33;9.00;;;;;21.36;60.20;101765.91;5081645;27;46219;-69
2022/07/21 03:59:38;;;;;;;;;9.00;8.33;;;;;21.35;60.54;101756.06;5081078;27;58447;-69
2022/07/21 04:02:04;;;;;;;;;7.67;7.67;;;;;21.35;60.14;101761.47;5080859;27;64686;-69
2022/07/21 04:04:29;;;;;;;;;11.33;11.33;;;;;21.36;60.09;101763.22;5081045;27;56595;-69
2022/07/21 04:06:54;;;;;;;;;12.00;11.67;;;;;21.38;60.02;101766.66;5080859;27;56149;-68
2022/07/21 04:09:21;;;;;;;;;13.67;12.67;;;;;21.39;60.35;101776.47;5081428;27;45319;-68
2022/07/21 04:11:46;;;;;;;;;16.00;15.00;;;;;21.40;60.04;101772.78;5081391;27;45314;-68
2022/07/21 04:14:12;;;;;;;;;16.67;12.33;;;;;21.39;60.17;101772.91;5081371;27;45206;-68
2022/07/21 04:16:37;;;;;;;;;12.33;11.33;;;;;21.38;60.59;101772.06;5080680;27;67974;-69
2022/07/21 04:19:02;;;;;;;;;13.00;12.33;;;;;21.37;60.54;101770.34;5080364;27;68612;-68
2022/07/21 04:21:28;;;;;;;;;12.67;12.33;;;;;21.39;60.28;101772.91;5078859;28;64582;-69
2022/07/21 04:23:53;;;;;;;;;12.33;12.33;;;;;21.39;60.47;101771.06;5081285;27;45245;-69
2022/07/21 04:26:19;;;;;;;;;18.67;12.67;;;;;21.40;60.15;101780.91;5081093;27;45944;-69
2022/07/21 04:28:44;;;;;;;;;15.00;14.33;;;;;21.41;60.02;101781.78;5080373;27;65591;-69
2022/07/21 04:31:09;;;;;;;;;13.33;13.33;;;;;21.43;60.14;101783.38;5080186;27;59402;-68
2022/07/21 04:33:35;;;;;;;;;13.67;13.67;;;;;21.45;59.77;101788.66;5080427;28;63947;-69
2022/07/21 04:36:00;;;;;;;;;14.33;13.67;;;;;21.47;60.40;101781.28;5080846;27;46085;-68
2022/07/21 04:38:25;;;;;;;;;13.67;13.00;;;;;21.49;60.12;101785.56;5080809;27;45460;-69
2022/07/21 04:40:51;;;;;;;;;15.33;13.33;;;;;21.52;59.57;101783.63;5080344;27;60637;-69
2022/07/21 04:43:16;;;;;;;;;15.00;15.00;;;;;21.54;60.14;101779.84;5080185;27;61367;-70
2022/07/21 04:45:41;;;;;;;;;15.67;15.67;;;;;21.57;60.02;101774.16;5079896;27;71107;-71
2022/07/21 04:48:07;;;;;;;;;14.67;14.67;;;;;21.60;59.51;101781.16;5080096;27;64345;-69
2022/07/21 04:50:32;;;;;;;;;18.67;16.67;;;;;21.57;60.12;101784.13;5079786;27;66031;-69
2022/07/21 04:52:58;;;;;;;;;16.33;15.67;;;;;21.57;59.78;101786.84;5080862;27;45375;-69
2022/07/21 04:55:24;;;;;;;;;21.00;18.00;;;;;21.58;59.87;101778.59;5080545;27;46262;-69
2022/07/21 04:57:51;;;;;;;;;18.33;17.33;;;;;21.57;59.81;101787.69;5080608;27;45854;-69
2022/07/21 05:00:19;;;;;;;;;14.67;14.00;;;;;21.57;59.65;101790.41;5080629;27;45363;-69
2022/07/21 05:02:45;;;;;;;;;16.00;13.33;;;;;21.57;60.15;101792.25;5080221;27;45342;-69
2022/07/21 05:05:11;;;;;;;;;13.67;13.67;;;;;21.58;59.48;101794.84;5080180;27;45491;-70
2022/07/21 05:07:36;;;;;;;;;16.67;16.67;;;;;21.61;59.72;101796.44;5080092;27;45369;-70
2022/07/21 05:10:07;;;;;;;;;20.67;18.33;;;;;21.63;60.19;101798.03;5080545;27;45406;-68
2022/07/21 05:12:33;;;;;;;;;14.33;11.33;;;;;21.58;60.14;101792.13;5080509;27;45440;-70
2022/07/21 05:14:58;;;;;;;;;18.33;18.00;;;;;21.55;60.04;101796.91;5080290;27;46031;-69
2022/07/21 05:17:23;;;;;;;;;20.33;17.67;;;;;21.58;59.95;101802.09;5079505;27;45432;-69
2022/07/21 05:19:50;;;;;;;;;18.00;17.00;;;;;21.59;60.09;101795.69;5079429;27;60651;-71
2022/07/21 05:22:18;;;;;;;;;20.67;16.33;;;;;21.64;59.87;101805.16;5079551;27;45359;-67
2022/07/21 05:24:44;;;;;;;;;16.00;16.00;;;;;21.69;60.24;101801.22;5079004;27;45737;-68
2022/07/21 05:27:09;;;;;;;;;16.00;15.00;;;;;21.72;60.06;101809.06;5079531;27;45461;-68
2022/07/21 05:29:35;;;;;;;;;16.33;15.67;;;;;21.75;59.66;101804.28;5079023;28;59531;-69
2022/07/21 05:32:00;;;;;;;;;16.00;16.00;;;;;21.80;59.46;101809.34;5078980;27;60333;-69
2022/07/21 05:34:25;;;;;;;;;18.67;16.33;;;;;21.83;59.88;101802.81;5079193;27;70412;-68
2022/07/21 05:36:51;;;;;;;;;19.67;18.00;;;;;21.85;59.43;101798.97;5079522;27;45410;-68
2022/07/21 05:39:16;;;;;;;;;15.33;15.33;;;;;21.85;59.51;101800.81;5080065;27;45602;-69
2022/07/21 05:41:41;;;;;;;;;16.33;15.33;;;;;21.85;59.55;101801.69;5080188;27;45396;-69
2022/07/21 05:44:07;;;;;;;;;17.00;14.67;;;;;21.85;59.50;101814.34;5080078;27;45350;-69
2022/07/21 05:46:32;;;;;;;;;15.67;14.00;;;;;21.83;59.91;101808.22;5078677;28;45312;-70
2022/07/21 05:48:58;;;;;;;;;20.00;17.33;;;;;21.82;59.42;101812.75;5079902;27;45694;-70
2022/07/21 05:51:23;;;;;;;;;19.33;18.00;;;;;21.85;59.78;101820.66;5079698;27;45294;-70
2022/07/21 05:53:48;;;;;;;;;20.67;19.33;;;;;21.85;59.27;101817.06;5079643;27;54935;-69
2022/07/21 05:56:14;;;;;;;;;17.67;17.00;;;;;21.83;59.70;101811.78;5079097;27;62725;-70
2022/07/21 05:58:39;;;;;;;;;17.67;17.00;;;;;21.80;59.81;101825.56;5078772;27;62964;-71
2022/07/21 06:01:15;;;;;;;;;21.00;19.33;;;;;21.81;59.42;101819.16;5079511;28;45561;-70
2022/07/21 06:03:42;;;;;;;;;19.00;19.00;;;;;21.86;59.77;101822.34;5079644;27;46913;-69
2022/07/21 06:06:09;;;;;;;;;19.67;18.33;;;;;21.90;60.02;101815.72;5079334;27;45308;-70
2022/07/21 06:08:34;;;;;;;;;20.33;18.00;;;;;21.94;59.57;101828.00;5079737;27;45276;-69
2022/07/21 06:11:00;;;;;;;;;22.33;18.00;;;;;22.02;59.46;101823.78;5078182;28;45398;-69
2022/07/21 06:13:25;;;;;;;;;17.67;16.00;;;;;22.10;59.25;101824.03;5079314;27;46032;-69
2022/07/21 06:15:50;;;;;;;;;18.00;15.00;;;;;22.13;59.15;101827.31;5079455;27;45422;-69
2022/07/21 06:18:16;;;;;;;;;16.00;14.33;;;;;22.17;59.48;101825.22;5078691;28;64234;-70
2022/07/21 06:20:41;;;;;;;;;16.50;13.50;;;;;22.21;58.94;101823.97;5079473;27;45377;-69
2022/07/21 06:23:07;;;;;;;;;19.67;17.00;;;;;22.26;59.13;101823.59;5079383;27;46503;-69
2022/07/21 06:25:32;;;;;;;;;18.33;17.00;;;;;22.30;58.74;101825.06;5079418;27;45295;-68
2022/07/21 06:27:57;;;;;;;;;17.00;16.33;;;;;22.36;58.91;101823.72;5078624;27;61309;-68
2022/07/21 06:30:23;;;;;;;;;21.00;20.00;;;;;22.41;58.55;101829.59;5078958;27;45387;-69
2022/07/21 06:32:48;;;;;;;;;18.33;16.33;;;;;22.50;58.45;101833.41;5078466;27;68862;-69
2022/07/21 06:35:13;;;;;;;;;17.33;17.33;;;;;22.53;58.68;101834.00;5078446;27;63857;-69
2022/07/21 06:37:44;;;;;;;;;15.67;15.67;;;;;22.57;58.20;101831.91;5079080;27;45442;-70
2022/07/21 06:40:10;;;;;;;;;14.67;14.67;;;;;22.58;58.16;101833.59;5079117;28;45402;-69
2022/07/21 06:42:35;;;;;;;;;15.00;14.33;;;;;22.62;58.05;101833.22;5079803;27;45507;-69
2022/07/21 06:45:00;;;;;;;;;15.67;15.67;;;;;22.65;57.87;101836.66;5082031;27;64635;-69
2022/07/21 06:47:26;;;;;;;;;19.33;17.33;;;;;22.64;58.33;101833.06;5082558;27;45366;-69
2022/07/21 06:49:51;;;;;;;;;14.67;14.33;;;;;22.70;57.96;101834.44;5081505;27;66113;-68
2022/07/21 06:52:16;;;;;;;;;19.00;17.67;;;;;22.78;57.74;101837.34;5082320;27;47540;-69
2022/07/21 06:54:42;;;;;;;;;17.33;17.33;;;;;22.85;57.32;101829.53;5081445;27;65694;-68
2022/07/21 06:57:07;;;;;;;;;20.33;16.33;;;;;22.90;57.60;101838.13;5082434;27;45335;-69
2022/07/21 06:59:33;;;;;;;;;16.33;15.00;;;;;22.95;57.15;101831.28;5081647;27;62860;-69
2022/07/21 07:01:59;;;;;;;;;16.67;16.00;;;;;23.03;57.38;101835.22;5080741;28;46028;-69
2022/07/21 07:04:24;;;;;;;;;16.00;15.33;;;;;23.08;57.07;101838.38;5082417;27;45682;-70
2022/07/21 07:06:51;;;;;;;;;20.33;17.00;;;;;23.13;57.04;101838.84;5082080;27;45424;-69
2022/07/21 07:09:17;;;;;;;;;19.67;16.00;;;;;23.21;56.73;101846.34;5082116;27;45450;-69
2022/07/21 07:11:42;;;;;;;;;15.00;14.33;;;;;23.29;56.87;101847.38;5081380;27;68317;-69
2022/07/21 07:14:08;;;;;;;;;15.67;15.00;;;;;23.33;56.70;101842.53;5082157;27;45388;-69
2022/07/21 07:16:33;;;;;;;;;16.33;15.33;;;;;23.37;56.59;101854.00;5082339;27;45563;-70
2022/07/21 07:18:58;;;;;;;;;15.33;13.33;;;;;23.38;56.24;101858.44;5081432;27;53320;-70
2022/07/21 07:21:24;;;;;;;;;17.00;15.67;;;;;23.37;56.78;101859.41;5081231;27;56210;-70
2022/07/21 07:23:49;;;;;;;;;18.33;17.33;;;;;23.36;56.31;101854.97;5081225;27;62473;-70
2022/07/21 07:26:14;;;;;;;;;14.33;13.67;;;;;23.35;56.28;101861.38;5082079;27;46074;-69
2022/07/21 07:28:40;;;;;;;;;18.67;18.67;;;;;23.43;56.36;101859.72;5081136;27;62505;-69
2022/07/21 07:31:05;;;;;;;;;18.33;17.67;;;;;23.48;56.11;101855.75;5081362;27;49885;-70
2022/07/21 07:33:30;;;;;;;;;16.67;16.67;;;;;23.48;56.02;101858.47;5080932;27;68052;-69
2022/07/21 07:35:57;;;;;;;;;19.00;18.33;;;;;23.51;55.99;101856.34;5081795;27;45413;-69
2022/07/21 07:38:22;;;;;;;;;18.67;18.33;;;;;23.61;55.97;101850.97;5080299;28;45573;-70
2022/07/21 07:40:47;;;;;;;;;18.33;17.00;;;;;23.75;55.61;101857.84;5081173;27;56463;-70
2022/07/21 07:43:13;;;;;;;;;22.00;19.67;;;;;23.85;55.55;101858.75;5081849;27;45462;-69
2022/07/21 07:45:38;;;;;;;;;16.00;16.00;;;;;23.91;55.25;101858.22;5081289;27;59753;-71
2022/07/21 07:48:04;;;;;;;;;16.67;16.67;;;;;23.95;55.23;101859.66;5080973;27;63666;-70
2022/07/21 07:50:29;;;;;;;;;19.00;18.33;;;;;23.98;54.67;101860.41;5081438;27;45230;-70
2022/07/21 07:52:54;;;;;;;;;22.67;18.67;;;;;24.02;54.92;101865.41;5080950;27;45253;-69
2022/07/21 07:55:20;;;;;;;;;21.00;20.00;;;;;24.10;54.76;101864.69;5080649;27;63670;-70
2022/07/21 07:57:45;;;;;;;;;21.00;19.00;;;;;24.13;54.52;101872.56;5080480;27;65016;-70
2022/07/21 08:00:14;;;;;;;;;21.67;20.00;;;;;24.16;54.32;101861.44;5081499;27;45619;-70
2022/07/21 08:02:40;;;;;;;;;14.33;13.33;;;;;24.23;54.46;101870.72;5081114;27;45385;-70
2022/07/21 08:05:08;;;;;;;;;20.00;19.33;;;;;24.33;54.10;101872.63;5081223;27;45445;-70
2022/07/21 08:07:34;;;;;;;;;23.00;21.00;;;;;24.40;53.94;101873.75;5081135;27;45292;-71
2022/07/21 08:09:59;;;;;;;;;20.67;18.00;;;;;24.45;53.36;101869.59;5081152;27;46354;-70
2022/07/21 08:12:25;;;;;;;;;21.67;20.67;;;;;24.47;53.19;101876.75;5080447;27;67100;-70
2022/07/21 08:14:50;;;;;;;;;22.67;20.00;;;;;24.45;53.97;101872.31;5081344;27;45442;-71
2022/07/21 08:17:16;;;;;;;;;20.33;19.00;;;;;24.52;53.66;101885.34;5080421;27;61546;-70
2022/07/21 08:19:42;;;;;;;;;30.50;27.00;;;;;24.53;53.19;101882.47;5080758;27;46833;-70
2022/07/21 08:22:07;;;;;;;;;23.00;21.33;;;;;24.54;53.57;101886.06;5080799;27;45449;-70
2022/07/21 08:24:33;;;;;;;;;28.67;24.67;;;;;24.58;52.89;101880.19;5080878;27;49890;-70
2022/07/21 08:26:58;;;;;;;;;21.67;20.67;;;;;24.70;53.08;101888.25;5080803;27;45397;-70
2022/07/21 08:29:23;;;;;;;;;21.33;18.67;;;;;24.82;52.24;101888.97;5079990;27;66200;-70
2022/07/21 08:31:49;;;;;;;;;22.67;22.33;;;;;24.90;52.56;101886.38;5080430;27;45383;-72
2022/07/21 08:34:14;;;;;;;;;22.33;21.67;;;;;25.07;52.48;101888.38;5080377;27;60466;-70
2022/07/21 08:36:39;;;;;;;;;20.00;20.00;;;;;25.29;51.50;101885.44;5079818;27;60976;-71
2022/07/21 08:39:05;;;;;;;;;18.00;18.00;;;;;25.49;51.22;101895.31;5080555;27;46032;-70
2022/07/21 08:41:32;;;;;;;;;23.67;23.00;;;;;25.75;51.54;101889.19;5079176;28;46654;-70
2022/07/21 08:43:57;;;;;;;;;21.00;16.67;;;;;26.31;50.87;101891.88;5080782;27;45424;-70
2022/07/21 08:46:23;;;;;;;;;21.67;21.67;;;;;27.04;49.08;101889.00;5080460;27;45345;-71
2022/07/21 08:48:50;;;;;;;;;21.67;17.33;;;;;27.53;48.28;101882.16;5080547;27;47177;-70
2022/07/21 08:51:16;;;;;;;;;19.00;18.67;;;;;27.69;47.20;101887.72;5080220;27;45396;-71
2022/07/21 08:53:45;;;;;;;;;20.33;20.33;;;;;27.71;47.46;101882.09;5079205;28;45484;-72
2022/07/21 08:56:10;;;;;;;;;19.33;18.00;;;;;27.66;46.74;101888.03;5080430;27;45350;-71
2022/07/21 08:58:37;;;;;;;;;25.00;20.33;;;;;27.61;46.51;101884.94;5080119;27;45346;-71
2022/07/21 09:01:02;;;;;;;;;23.33;21.67;;;;;27.52;46.72;101885.91;5080244;27;45251;-71
2022/07/21 09:03:29;;;;;;;;;23.67;22.00;;;;;27.42;46.54;101880.56;5080405;27;45301;-71
2022/07/21 09:06:13;;;;;;;;;25.00;20.33;;;;;27.39;46.57;101880.88;5079152;27;45380;-71
2022/07/21 09:08:46;;;;;;;;;21.67;21.67;;;;;27.36;46.60;101886.66;5079643;27;46266;-71
2022/07/21 09:11:24;;;;;;;;;23.00;20.67;;;;;27.29;46.47;101897.38;5079889;27;45296;-72
2022/07/21 09:14:07;;;;;;;;;21.67;20.00;;;;;27.15;46.44;101887.88;5080037;27;45364;-72
2022/07/21 09:16:53;;;;;;;;;21.33;20.00;;;;;27.06;46.54;101895.19;5079993;27;45406;-71
2022/07/21 09:19:20;;;;;;;;;21.00;18.67;;;;;26.94;46.69;101898.31;5079783;27;46386;-71
2022/07/21 09:21:46;;;;;;;;;18.33;17.00;;;;;26.77;46.40;101897.31;5079867;27;45232;-71
2022/07/21 09:24:17;;;;;;;;;17.33;17.33;;;;;26.61;47.41;101898.84;5078737;28;45448;-70
2022/07/21 09:26:58;;;;;;;;;19.33;16.67;;;;;26.52;47.46;101888.88;5080019;27;45343;-72
2022/07/21 09:29:24;;;;;;;;;18.00;15.33;;;;;26.39;47.11;101900.16;5079455;28;45473;-70
2022/07/21 09:31:49;;;;;;;;;21.67;18.00;;;;;26.29;47.91;101896.66;5079298;27;45954;-71
2022/07/21 09:34:14;;;;;;;;;23.00;21.33;;;;;26.28;47.90;101897.66;5078975;27;64363;-71
2022/07/21 09:36:54;;;;;;;;;20.00;20.00;;;;;26.25;47.47;101896.09;5079466;27;45428;-70
2022/07/21 09:39:40;;;;;;;;;20.00;18.33;;;;;26.26;48.14;101900.53;5079907;27;45405;-70
2022/07/21 09:42:15;;;;;;;;;19.00;19.00;;;;;26.34;47.69;101902.50;5080063;27;45251;-72
2022/07/21 09:44:46;;;;;;;;;17.00;17.00;;;;;26.46;47.76;101901.25;5079994;27;45646;-72
2022/07/21 09:47:13;;;;;;;;;16.33;16.33;;;;;26.65;47.48;101908.44;5079911;27;45462;-71
2022/07/21 09:49:40;;;;;;;;;17.00;16.67;;;;;27.00;46.78;101914.03;5079346;27;46237;-71
2022/07/21 09:52:29;;;;;;;;;10.67;8.33;;;;;27.28;46.28;101905.72;5079525;27;45448;-70
2022/07/21 09:54:57;;;;;;;;;18.33;15.67;;;;;27.44;45.78;101900.38;5076434;28;45538;-73
2022/07/21 09:57:23;;;;;;;;;18.33;17.00;;;;;27.81;45.52;101893.75;5079594;28;45455;-73
2022/07/21 09:59:50;;;;;;;;;14.67;14.67;;;;;28.08;45.18;101888.22;5079551;27;46176;-71
2022/07/21 10:02:21;;;;;;;;;20.67;19.33;;;;;28.20;44.29;101886.91;5079516;27;45475;-70
2022/07/21 10:04:50;;;;;;;;;21.00;19.67;;;;;28.41;43.88;101891.03;5079489;28;45436;-70
2022/07/21 10:07:17;;;;;;;;;16.00;15.00;;;;;28.62;43.98;101885.94;5079356;27;45584;-70
2022/07/21 10:09:43;;;;;;;;;17.00;16.67;;;;;28.75;43.37;101885.47;5079377;27;46219;-71
2022/07/21 10:12:09;;;;;;;;;14.00;14.00;;;;;28.98;43.35;101890.22;5079252;27;45423;-71
2022/07/21 10:14:35;;;;;;;;;17.33;17.33;;;;;29.61;42.38;101883.09;5077550;28;61547;-71
2022/07/21 10:17:00;;;;;;;;;17.00;15.67;;;;;30.56;41.85;101880.38;5079599;28;45340;-72
2022/07/21 10:19:32;;;;;;;;;16.67;15.00;;;;;31.62;39.89;101883.19;5082694;27;46134;-73
2022/07/21 10:22:31;;;;;;;;;18.00;16.33;;;;;32.62;38.66;101888.97;5081525;28;45297;-72
2022/07/21 10:24:56;;;;;;;;;13.67;13.00;;;;;33.38;36.40;101879.25;5081725;28;45482;-72
2022/07/21 10:27:22;;;;;;;;;14.67;13.00;;;;;33.91;36.19;101886.94;5082869;27;45279;-72
2022/07/21 10:29:47;;;;;;;;;12.00;11.33;;;;;34.63;33.48;101890.13;5081641;28;59007;-72
2022/07/21 10:32:19;;;;;;;;;14.33;14.33;;;;;35.06;34.83;101891.63;5082015;27;45366;-72
2022/07/21 10:34:44;;;;;;;;;16.00;16.00;;;;;35.57;31.45;101892.81;5082523;27;45428;-73
2022/07/21 10:37:11;;;;;;;;;13.67;13.00;;;;;36.15;32.44;101891.09;5081404;28;45365;-73
2022/07/21 10:39:38;;;;;;;;;13.00;13.00;;;;;36.62;31.92;101893.56;5080995;28;45391;-72
2022/07/21 10:42:15;;;;;;;;;16.33;16.00;;;;;36.98;29.73;101887.31;5082589;27;45527;-73
2022/07/21 10:44:45;;;;;;;;;12.00;11.67;;;;;36.83;29.75;101887.66;5082739;27;45438;-74
2022/07/21 10:47:18;;;;;;;;;10.67;10.67;;;;;36.21;29.31;101892.97;5082658;27;45258;-73
2022/07/21 10:49:53;;;;;;;;;12.00;12.00;;;;;35.68;30.60;101891.28;5082141;27;45394;-72
2022/07/21 10:52:39;;;;;;;;;12.50;11.50;;;;;35.52;30.14;101890.69;5082383;27;45456;-72
2022/07/21 10:55:11;;;;;;;;;16.33;15.67;;;;;35.63;30.41;101897.44;5082626;27;45507;-72
2022/07/21 10:57:38;;;;;;;;;16.33;15.00;;;;;36.13;29.58;101885.78;5082555;27;45529;-72
2022/07/21 11:00:33;;;;;;;;;13.67;13.67;;;;;36.71;28.98;101893.06;5082325;27;46185;-72
2022/07/21 11:03:01;;;;;;;;;11.00;11.00;;;;;36.73;29.13;101887.31;5082411;27;45494;-72
2022/07/21 11:05:29;;;;;;;;;16.00;14.00;;;;;36.42;28.10;101895.41;5082369;27;45251;-71
2022/07/21 11:08:15;;;;;;;;;13.33;12.00;;;;;36.01;29.26;101887.53;5082451;27;45575;-72
2022/07/21 11:10:46;;;;;;;;;16.67;15.00;;;;;36.39;29.73;101893.09;5082103;27;46090;-72
2022/07/21 11:13:13;;;;;;;;;13.33;13.33;;;;;36.89;28.49;101888.69;5082093;27;45449;-72
2022/07/21 11:15:54;;;;;;;;;15.33;12.33;;;;;37.33;28.20;101884.00;5082309;27;45288;-74